Time;durP1;ratioP1;P1;durP2;ratioP2;P2;SDS_P1;SDS_P2;PMS_P1;PMS_P2;Temp;Humidity;BMP_temperature;BMP_pressure;BME280_temperature;BME280_humidity;BME280_pressure;Samples;Min_cycle;Max_cycle;Signal;HPM_P1;HPM_P2
2023/06/18 00:00:36;;;;;;;31.10;17.90;;;16.90;99.90;;;;;;5008398;28;20209;-71
2023/06/18 00:03:01;;;;;;;34.30;19.00;;;16.90;99.90;;;;;;5015343;28;20052;-71
2023/06/18 00:05:27;;;;;;;32.70;18.38;;;16.80;99.90;;;;;;5019152;28;20037;-71
2023/06/18 00:07:53;;;;;;;33.40;18.15;;;16.80;99.90;;;;;;5016829;28;20144;-71
2023/06/18 00:10:18;;;;;;;30.52;18.00;;;16.80;99.90;;;;;;5019365;28;20552;-71
2023/06/18 00:12:44;;;;;;;32.42;16.48;;;16.70;99.90;;;;;;5020953;28;20060;-71
2023/06/18 00:15:10;;;;;;;30.98;17.20;;;16.80;99.90;;;;;;5014024;28;20056;-71
2023/06/18 00:17:36;;;;;;;28.77;16.75;;;16.70;99.90;;;;;;5016303;28;20068;-71
2023/06/18 00:20:02;;;;;;;31.20;17.73;;;16.70;99.90;;;;;;5024376;28;20119;-71
2023/06/18 00:22:28;;;;;;;28.60;17.02;;;16.70;99.90;;;;;;5037998;28;20463;-71
2023/06/18 00:24:54;;;;;;;;;;;16.70;99.90;;;;;;5018910;28;20073;-71
2023/06/18 00:27:20;;;;;;;31.33;16.55;;;16.70;99.90;;;;;;5005095;28;19959;-71
2023/06/18 00:29:46;;;;;;;31.20;17.08;;;16.70;99.90;;;;;;5037736;28;20033;-71
2023/06/18 00:32:14;;;;;;;33.58;17.98;;;16.70;99.90;;;;;;5019053;28;20083;-71
2023/06/18 00:34:41;;;;;;;34.92;18.15;;;16.70;99.90;;;;;;5002624;28;20332;-71
2023/06/18 00:37:09;;;;;;;31.83;17.30;;;16.70;99.90;;;;;;5006667;28;20041;-71
2023/06/18 00:39:36;;;;;;;30.30;17.52;;;16.60;99.90;;;;;;5040639;28;20045;-71
2023/06/18 00:42:05;;;;;;;27.73;17.10;;;16.60;99.90;;;;;;5017255;28;20440;-71
2023/06/18 00:44:31;;;;;;;29.08;16.48;;;16.60;99.90;;;;;;5019315;28;20148;-71
2023/06/18 00:46:59;;;;;;;33.70;17.92;;;16.50;99.90;;;;;;5022494;28;20052;-71
2023/06/18 00:49:27;;;;;;;30.65;17.52;;;16.50;99.90;;;;;;5020354;28;20545;-71
2023/06/18 00:51:53;;;;;;;34.80;18.33;;;16.50;99.90;;;;;;5021150;28;20068;-71
2023/06/18 00:54:19;;;;;;;34.22;18.02;;;16.40;99.90;;;;;;5021707;28;20136;-71
2023/06/18 00:56:51;;;;;;;31.35;17.38;;;16.50;99.90;;;;;;5004605;28;20049;-71
2023/06/18 00:59:21;;;;;;;34.03;18.52;;;16.50;99.90;;;;;;5015531;28;20068;-70
2023/06/18 01:01:54;;;;;;;32.47;18.80;;;16.40;99.90;;;;;;5040236;28;20232;-70
2023/06/18 01:04:23;;;;;;;33.78;18.85;;;16.40;99.90;;;;;;5023717;28;20072;-70
2023/06/18 01:06:51;;;;;;;34.10;18.60;;;16.40;99.90;;;;;;5019798;28;20049;-70
2023/06/18 01:09:22;;;;;;;32.25;19.25;;;16.30;99.90;;;;;;5023392;28;20067;-70
2023/06/18 01:11:52;;;;;;;32.97;19.52;;;16.40;99.90;;;;;;5025385;28;20124;-70
2023/06/18 01:14:21;;;;;;;35.50;19.98;;;16.30;99.90;;;;;;5016500;28;20056;-70
2023/06/18 01:16:49;;;;;;;37.63;20.50;;;16.30;99.90;;;;;;5019801;28;20053;-70
2023/06/18 01:19:21;;;;;;;32.53;19.48;;;16.30;99.90;;;;;;5023371;28;20078;-70
2023/06/18 01:21:53;;;;;;;33.50;18.80;;;16.30;99.90;;;;;;5014024;28;20065;-70
2023/06/18 01:24:23;;;;;;;36.08;19.98;;;16.20;99.90;;;;;;5023237;28;20151;-71
2023/06/18 01:26:54;;;;;;;38.83;20.58;;;16.20;99.90;;;;;;5024216;28;20422;-71
2023/06/18 01:29:21;;;;;;;36.65;20.50;;;16.20;99.90;;;;;;5018650;28;20384;-76
2023/06/18 01:31:46;;;;;;;39.30;21.35;;;16.20;99.90;;;;;;5017282;28;20049;-71
2023/06/18 01:34:12;;;;;;;37.50;20.52;;;16.10;99.90;;;;;;5019025;28;20044;-70
2023/06/18 01:36:58;;;;;;;37.88;21.13;;;16.10;99.90;;;;;;5018302;28;20059;-70
2023/06/18 01:39:40;;;;;;;34.40;20.00;;;16.20;99.90;;;;;;5033785;28;20041;-71
2023/06/18 01:42:16;;;;;;;40.20;20.60;;;16.10;99.90;;;;;;5017562;28;20499;-71
2023/06/18 01:44:53;;;;;;;39.35;20.85;;;16.10;99.90;;;;;;5026603;28;20033;-71
2023/06/18 01:47:20;;;;;;;36.55;20.42;;;16.10;99.90;;;;;;5023549;28;20295;-71
2023/06/18 01:49:47;;;;;;;33.78;19.38;;;16.10;99.90;;;;;;5023106;28;20049;-71
2023/06/18 01:52:16;;;;;;;34.85;18.80;;;16.10;99.90;;;;;;5042446;28;20112;-71
2023/06/18 01:54:46;;;;;;;31.67;18.02;;;16.10;99.90;;;;;;5023813;28;20095;-71
2023/06/18 01:57:16;;;;;;;35.90;18.73;;;16.10;99.90;;;;;;5023230;28;20453;-72
2023/06/18 01:59:44;;;;;;;33.33;18.40;;;16.10;99.90;;;;;;5025128;28;20041;-72
2023/06/18 02:02:12;;;;;;;35.67;19.92;;;16.00;99.90;;;;;;5023665;28;20182;-72
2023/06/18 02:04:43;;;;;;;34.92;19.65;;;16.00;99.90;;;;;;5047139;28;20483;-72
2023/06/18 02:07:12;;;;;;;35.85;19.60;;;16.00;99.90;;;;;;5024783;28;20049;-71
2023/06/18 02:09:37;;;;;;;39.45;20.30;;;16.00;99.90;;;;;;5022957;28;20037;-75
2023/06/18 02:12:03;;;;;;;33.30;18.63;;;16.00;99.90;;;;;;5020593;28;20039;-71
2023/06/18 02:14:30;;;;;;;35.70;18.42;;;15.90;99.90;;;;;;5017015;28;20069;-71
2023/06/18 02:16:56;;;;;;;31.77;17.40;;;16.00;99.90;;;;;;5022772;28;20056;-71
2023/06/18 02:19:22;;;;;;;32.72;18.55;;;15.90;99.90;;;;;;5021341;28;20568;-71
2023/06/18 02:21:47;;;;;;;34.92;19.17;;;15.90;99.90;;;;;;5023451;28;20040;-72
2023/06/18 02:24:15;;;;;;;35.47;19.20;;;15.90;99.90;;;;;;5043553;28;20045;-72
2023/06/18 02:26:41;;;;;;;32.55;18.42;;;15.80;99.90;;;;;;5030163;28;20045;-72
2023/06/18 02:29:07;;;;;;;33.88;18.45;;;15.80;99.90;;;;;;5013671;28;20044;-72
2023/06/18 02:31:33;;;;;;;32.03;18.35;;;15.80;99.90;;;;;;5026816;28;20037;-72
2023/06/18 02:33:58;;;;;;;30.88;17.83;;;15.80;99.90;;;;;;5046935;28;20568;-72
2023/06/18 02:36:24;;;;;;;27.35;16.25;;;15.80;99.90;;;;;;5027908;28;20037;-72
2023/06/18 02:38:52;;;;;;;29.40;17.50;;;15.80;99.90;;;;;;5048639;28;20521;-72
2023/06/18 02:41:18;;;;;;;32.17;18.08;;;15.80;99.90;;;;;;5028166;28;20446;-72
2023/06/18 02:43:44;;;;;;;36.88;19.83;;;15.80;99.90;;;;;;5020351;28;20183;-72
2023/06/18 02:46:10;;;;;;;30.85;16.73;;;15.80;99.90;;;;;;5043403;28;20219;-72
2023/06/18 02:48:35;;;;;;;29.70;16.75;;;15.70;99.90;;;;;;5047320;28;20056;-72
2023/06/18 02:51:01;;;;;;;33.13;18.00;;;15.80;99.90;;;;;;5028038;28;20037;-72
2023/06/18 02:53:27;;;;;;;29.65;16.98;;;15.70;99.90;;;;;;5059565;23;20517;-72
2023/06/18 02:55:52;;;;;;;35.40;18.45;;;15.70;99.90;;;;;;5025407;28;20091;-72
2023/06/18 02:58:27;;;;;;;30.15;17.63;;;15.70;99.90;;;;;;5031449;28;20371;-72
2023/06/18 03:00:57;;;;;;;29.70;17.27;;;15.70;99.90;;;;;;5027638;28;20179;-72
2023/06/18 03:03:23;;;;;;;35.58;18.30;;;15.70;99.90;;;;;;5033930;28;20041;-72
2023/06/18 03:05:49;;;;;;;34.00;17.85;;;15.70;99.90;;;;;;5024119;28;20048;-72
2023/06/18 03:08:15;;;;;;;;;;;15.70;99.90;;;;;;5031581;28;20060;-72
2023/06/18 03:10:44;;;;;;;31.80;18.20;;;15.70;99.90;;;;;;5022756;28;20281;-72
2023/06/18 03:13:09;;;;;;;30.15;16.23;;;15.70;99.90;;;;;;5019810;28;20415;-72
2023/06/18 03:15:35;;;;;;;28.90;16.65;;;15.70;99.90;;;;;;5032817;28;20048;-72
2023/06/18 03:18:01;;;;;;;30.80;16.88;;;15.70;99.90;;;;;;5026646;28;20057;-72
2023/06/18 03:20:27;;;;;;;30.88;16.80;;;15.70;99.90;;;;;;5034450;28;20123;-72
2023/06/18 03:22:53;;;;;;;34.90;17.50;;;15.70;99.90;;;;;;5031047;28;20042;-72
2023/06/18 03:25:20;;;;;;;;;;;15.70;99.90;;;;;;5025630;28;20084;-72
2023/06/18 03:27:47;;;;;;;28.50;16.50;;;15.60;99.90;;;;;;5030833;28;19974;-72
2023/06/18 03:30:13;;;;;;;30.85;17.23;;;15.60;99.90;;;;;;5047941;28;20387;-72
2023/06/18 03:32:38;;;;;;;28.55;16.30;;;15.60;99.90;;;;;;5009833;28;20047;-72
2023/06/18 03:35:04;;;;;;;26.42;16.10;;;15.60;99.90;;;;;;5028462;28;20404;-72
2023/06/18 03:37:30;;;;;;;;;;;15.70;99.90;;;;;;5034820;28;20546;-72
2023/06/18 03:39:57;;;;;;;27.35;15.70;;;15.60;99.90;;;;;;5030364;28;20035;-72
2023/06/18 03:42:23;;;;;;;31.52;17.45;;;15.70;99.90;;;;;;5044578;28;20030;-72
2023/06/18 03:44:49;;;;;;;26.65;15.05;;;15.70;99.90;;;;;;5025027;28;20037;-72
2023/06/18 03:47:15;;;;;;;29.08;16.33;;;15.70;99.90;;;;;;5027876;28;20040;-72
2023/06/18 03:49:41;;;;;;;26.90;15.88;;;15.70;99.90;;;;;;5026684;28;20044;-72
2023/06/18 03:52:07;;;;;;;30.35;16.92;;;15.70;99.90;;;;;;5028340;28;20380;-72
2023/06/18 03:54:33;;;;;;;27.77;16.10;;;15.70;99.90;;;;;;5031483;28;20056;-72
2023/06/18 03:56:58;;;;;;;27.33;15.90;;;15.70;99.90;;;;;;5032241;28;20037;-72
2023/06/18 03:59:24;;;;;;;28.17;16.10;;;15.70;99.90;;;;;;5030908;28;20049;-72
2023/06/18 04:01:50;;;;;;;28.75;15.52;;;15.70;99.90;;;;;;5029115;28;20229;-72
2023/06/18 04:04:16;;;;;;;30.17;15.95;;;15.70;99.90;;;;;;5030802;28;20044;-72
2023/06/18 04:06:42;;;;;;;28.40;15.57;;;15.70;99.90;;;;;;5043355;28;20483;-72
2023/06/18 04:09:08;;;;;;;27.05;15.20;;;15.70;99.90;;;;;;5023199;28;20335;-72
2023/06/18 04:11:36;;;;;;;27.75;15.95;;;15.70;99.90;;;;;;5022356;28;20543;-72
2023/06/18 04:14:02;;;;;;;29.27;17.02;;;15.70;99.90;;;;;;5009907;28;20236;-72
2023/06/18 04:16:28;;;;;;;29.98;16.10;;;15.70;99.90;;;;;;5021409;28;20045;-72
2023/06/18 04:18:54;;;;;;;25.50;14.45;;;15.70;99.90;;;;;;5048045;28;20178;-72
2023/06/18 04:21:20;;;;;;;29.88;16.08;;;15.80;99.90;;;;;;5017211;28;20134;-72
2023/06/18 04:23:46;;;;;;;30.48;15.35;;;15.90;99.90;;;;;;5029889;28;20033;-72
2023/06/18 04:26:11;;;;;;;28.35;16.05;;;15.90;99.90;;;;;;5002083;28;20068;-72
2023/06/18 04:28:37;;;;;;;27.95;16.13;;;15.90;99.90;;;;;;5042238;28;20852;-72
2023/06/18 04:31:03;;;;;;;28.73;16.30;;;15.90;99.90;;;;;;5021185;28;20084;-72
2023/06/18 04:33:28;;;;;;;28.40;16.20;;;15.90;99.90;;;;;;5028542;28;20052;-72
2023/06/18 04:35:54;;;;;;;28.27;15.90;;;15.90;99.90;;;;;;5030541;28;20040;-72
2023/06/18 04:38:21;;;;;;;27.00;15.43;;;15.90;99.90;;;;;;5020249;28;20064;-72
2023/06/18 04:40:48;;;;;;;31.33;15.60;;;16.00;99.90;;;;;;5030848;28;20478;-72
2023/06/18 04:43:13;;;;;;;30.63;15.77;;;16.10;99.90;;;;;;5028267;28;20048;-72
2023/06/18 04:45:39;;;;;;;29.15;16.65;;;16.10;99.90;;;;;;5023251;28;20399;-72
2023/06/18 04:48:05;;;;;;;30.17;16.63;;;16.10;99.90;;;;;;5018968;28;20077;-72
2023/06/18 04:50:31;;;;;;;26.20;15.50;;;16.10;99.90;;;;;;5021974;28;20037;-72
2023/06/18 04:52:57;;;;;;;28.15;15.18;;;16.10;99.90;;;;;;5022045;28;20071;-72
2023/06/18 04:55:23;;;;;;;28.27;15.45;;;16.10;99.90;;;;;;5027645;28;20046;-72
2023/06/18 04:57:49;;;;;;;28.75;16.20;;;16.10;99.90;;;;;;5030139;28;20052;-72
2023/06/18 05:00:17;;;;;;;31.70;16.70;;;16.10;99.90;;;;;;5036337;28;20056;-72
2023/06/18 05:02:43;;;;;;;29.95;16.55;;;16.10;99.90;;;;;;5012580;28;20037;-72
2023/06/18 05:05:09;;;;;;;33.03;17.25;;;16.20;99.90;;;;;;5032207;28;20380;-72
2023/06/18 05:07:35;;;;;;;;;;;16.10;99.90;;;;;;5030630;28;20041;-72
2023/06/18 05:10:01;;;;;;;30.75;15.52;;;16.20;99.90;;;;;;5024822;28;19971;-72
2023/06/18 05:12:26;;;;;;;27.13;15.85;;;16.20;99.90;;;;;;5030554;28;20045;-72
2023/06/18 05:14:52;;;;;;;30.02;16.58;;;16.20;99.90;;;;;;5050901;28;20124;-72
2023/06/18 05:17:18;;;;;;;31.75;15.52;;;16.30;99.90;;;;;;5023013;28;20540;-72
2023/06/18 05:19:43;;;;;;;32.88;16.58;;;16.30;99.90;;;;;;5031178;28;20052;-72
2023/06/18 05:22:09;;;;;;;30.05;16.98;;;16.30;99.90;;;;;;5042350;28;20067;-72
2023/06/18 05:24:34;;;;;;;31.38;15.98;;;16.30;99.90;;;;;;5034047;28;20379;-72
2023/06/18 05:27:00;;;;;;;33.85;16.45;;;16.30;99.90;;;;;;5033800;28;20479;-72
2023/06/18 05:29:26;;;;;;;30.33;16.70;;;16.30;99.90;;;;;;5052297;28;20119;-72
2023/06/18 05:31:51;;;;;;;31.95;16.23;;;16.30;99.90;;;;;;5014601;28;20037;-72
2023/06/18 05:34:17;;;;;;;26.88;15.20;;;16.40;99.90;;;;;;5025759;28;20055;-72
2023/06/18 05:36:42;;;;;;;29.55;16.67;;;16.40;99.90;;;;;;5025396;28;20793;-72
2023/06/18 05:39:08;;;;;;;30.65;15.43;;;16.50;99.90;;;;;;5017514;28;20468;-72
2023/06/18 05:41:34;;;;;;;27.80;15.45;;;16.50;99.90;;;;;;5026170;28;20247;-72
2023/06/18 05:44:00;;;;;;;31.38;17.05;;;16.60;99.90;;;;;;5032088;28;20145;-72
2023/06/18 05:46:25;;;;;;;31.85;16.55;;;16.70;99.90;;;;;;5048971;28;20041;-72
2023/06/18 05:48:52;;;;;;;27.92;15.25;;;16.70;99.90;;;;;;5032900;28;20049;-72
2023/06/18 05:51:18;;;;;;;27.50;15.93;;;16.80;99.90;;;;;;5030737;28;20072;-72
2023/06/18 05:53:43;;;;;;;27.70;15.10;;;16.90;99.90;;;;;;5028704;28;20123;-72
2023/06/18 05:56:09;;;;;;;31.15;18.00;;;17.00;99.90;;;;;;5031981;28;20174;-72
2023/06/18 05:58:35;;;;;;;27.60;15.45;;;17.10;99.90;;;;;;5031590;28;20827;-72
2023/06/18 06:01:01;;;;;;;30.27;16.80;;;17.20;99.90;;;;;;5015449;28;20037;-72
2023/06/18 06:03:26;;;;;;;30.25;16.88;;;17.30;99.90;;;;;;5027137;28;20041;-72
2023/06/18 06:05:52;;;;;;;28.80;16.45;;;17.40;99.90;;;;;;5047726;28;20356;-72
2023/06/18 06:08:17;;;;;;;28.60;16.30;;;17.50;99.90;;;;;;5039130;28;20053;-72
2023/06/18 06:10:43;;;;;;;30.58;16.05;;;17.50;99.90;;;;;;5030281;28;20048;-72
2023/06/18 06:13:09;;;;;;;28.27;16.10;;;17.60;99.90;;;;;;5021653;28;20389;-72
2023/06/18 06:15:35;;;;;;;29.10;15.75;;;17.70;99.90;;;;;;5028086;28;20107;-72
2023/06/18 06:18:01;;;;;;;26.33;15.48;;;17.80;99.90;;;;;;5044767;28;20710;-72
2023/06/18 06:20:27;;;;;;;28.27;17.23;;;17.80;99.90;;;;;;5027387;28;20052;-72
2023/06/18 06:22:52;;;;;;;30.13;16.27;;;17.80;99.90;;;;;;5033302;28;20441;-72
2023/06/18 06:25:18;;;;;;;27.55;15.50;;;17.90;99.90;;;;;;5031827;28;20107;-72
2023/06/18 06:27:44;;;;;;;29.98;16.50;;;17.90;99.90;;;;;;5031070;28;20041;-72
2023/06/18 06:30:10;;;;;;;28.52;15.38;;;18.00;99.90;;;;;;5032223;28;20119;-72
2023/06/18 06:32:36;;;;;;;29.00;15.80;;;18.10;99.90;;;;;;5039536;28;20040;-72
2023/06/18 06:35:05;;;;;;;25.77;15.45;;;18.10;99.90;;;;;;5032442;28;20076;-72
2023/06/18 06:37:32;;;;;;;29.17;15.25;;;18.20;99.90;;;;;;5021936;28;20083;-72
2023/06/18 06:39:58;;;;;;;29.10;15.23;;;18.30;99.90;;;;;;5027936;28;20042;-72
2023/06/18 06:42:24;;;;;;;25.15;15.55;;;18.40;99.90;;;;;;5032025;28;20112;-72
2023/06/18 06:44:49;;;;;;;30.70;14.43;;;18.40;99.90;;;;;;5031662;28;20045;-72
2023/06/18 06:47:15;;;;;;;28.40;15.23;;;18.50;99.90;;;;;;5030770;28;20091;-72
2023/06/18 06:49:41;;;;;;;27.23;14.95;;;18.60;99.90;;;;;;5047841;28;20391;-72
2023/06/18 06:52:06;;;;;;;25.90;15.02;;;18.70;99.90;;;;;;5023696;28;20065;-72
2023/06/18 06:54:32;;;;;;;27.20;15.40;;;18.70;99.90;;;;;;5050710;28;20033;-72
2023/06/18 06:56:58;;;;;;;26.02;14.95;;;18.80;99.90;;;;;;5034823;28;20120;-72
2023/06/18 06:59:24;;;;;;;27.05;14.70;;;18.80;99.90;;;;;;5031100;28;20063;-72
2023/06/18 07:01:50;;;;;;;22.52;13.50;;;18.80;99.90;;;;;;5013404;28;20037;-72
2023/06/18 07:04:15;;;;;;;26.92;14.88;;;18.90;99.90;;;;;;5035202;28;21164;-72
2023/06/18 07:06:41;;;;;;;25.67;14.32;;;19.00;99.90;;;;;;5032834;28;20502;-72
2023/06/18 07:09:07;;;;;;;24.63;14.52;;;19.10;99.90;;;;;;5031649;28;20053;-72
2023/06/18 07:11:33;;;;;;;26.17;14.85;;;19.10;99.90;;;;;;5031023;28;20497;-72
2023/06/18 07:14:03;;;;;;;27.40;14.32;;;19.20;99.90;;;;;;5044277;28;20041;-72
2023/06/18 07:16:29;;;;;;;27.77;14.82;;;19.30;99.90;;;;;;5029688;28;20041;-71
2023/06/18 07:18:54;;;;;;;22.80;14.00;;;19.40;99.90;;;;;;5032051;28;20514;-72
2023/06/18 07:21:20;;;;;;;22.50;14.32;;;19.50;99.90;;;;;;5029926;28;20103;-72
2023/06/18 07:23:46;;;;;;;28.52;14.63;;;19.60;99.90;;;;;;5024841;28;20517;-72
2023/06/18 07:26:11;;;;;;;22.90;13.98;;;19.70;99.90;;;;;;5013968;28;20072;-72
2023/06/18 07:28:37;;;;;;;23.95;13.63;;;19.70;99.90;;;;;;5013172;28;20402;-72
2023/06/18 07:31:03;;;;;;;22.13;13.57;;;19.80;99.90;;;;;;5021487;28;20041;-72
2023/06/18 07:33:28;;;;;;;25.02;14.43;;;19.90;99.90;;;;;;5027552;28;20041;-72
2023/06/18 07:35:54;;;;;;;23.92;14.05;;;20.10;99.90;;;;;;5031459;28;20247;-72
2023/06/18 07:38:20;;;;;;;22.60;13.05;;;20.20;99.90;;;;;;5027863;28;20419;-72
2023/06/18 07:40:46;;;;;;;19.48;12.60;;;20.40;99.90;;;;;;5014873;28;20056;-72
2023/06/18 07:43:12;;;;;;;23.40;13.02;;;20.40;99.90;;;;;;5030139;28;20124;-72
2023/06/18 07:45:38;;;;;;;21.90;12.13;;;20.50;99.90;;;;;;5014257;28;20483;-72
2023/06/18 07:48:04;;;;;;;20.88;11.50;;;20.60;99.90;;;;;;5024751;28;20041;-72
2023/06/18 07:50:30;;;;;;;21.75;12.70;;;20.70;99.90;;;;;;5014920;28;20045;-72
2023/06/18 07:52:56;;;;;;;24.98;13.55;;;20.80;99.90;;;;;;5042780;28;20044;-72
2023/06/18 07:55:22;;;;;;;22.85;12.50;;;20.80;99.90;;;;;;5029816;28;20047;-72
2023/06/18 07:57:48;;;;;;;25.70;13.32;;;20.90;99.90;;;;;;5042568;28;20049;-72
2023/06/18 08:00:14;;;;;;;23.35;12.63;;;21.00;99.90;;;;;;5030355;28;20045;-72
2023/06/18 08:02:39;;;;;;;21.42;13.30;;;21.10;99.90;;;;;;5028225;28;20056;-72
2023/06/18 08:05:07;;;;;;;21.85;11.98;;;21.20;99.90;;;;;;5027222;28;20044;-72
2023/06/18 08:07:32;;;;;;;20.08;11.63;;;21.30;99.90;;;;;;5029227;28;20072;-72
2023/06/18 08:09:58;;;;;;;;;;;21.40;99.90;;;;;;5028869;28;20048;-72
2023/06/18 08:12:23;;;;;;;23.48;11.40;;;21.50;99.90;;;;;;5023611;28;19952;-72
2023/06/18 08:14:49;;;;;;;;;;;21.60;99.90;;;;;;5030019;28;20072;-72
2023/06/18 08:17:17;;;;;;;20.00;12.35;;;21.70;99.90;;;;;;5025590;28;20438;-72
2023/06/18 08:19:47;;;;;;;19.17;11.27;;;21.80;99.90;;;;;;5045074;28;20041;-72
2023/06/18 08:22:15;;;;;;;22.55;12.93;;;21.80;99.90;;;;;;5026087;28;20040;-72
2023/06/18 08:24:41;;;;;;;20.15;12.00;;;21.90;99.90;;;;;;5029561;28;20451;-72
2023/06/18 08:27:07;;;;;;;;;;;22.00;99.90;;;;;;5045734;28;20040;-72
2023/06/18 08:29:33;;;;;;;16.58;9.80;;;22.10;99.90;;;;;;5012331;28;20450;-72
2023/06/18 08:32:04;;;;;;;15.93;9.88;;;22.10;99.90;;;;;;5026190;28;20055;-72
2023/06/18 08:34:46;;;;;;;18.98;10.70;;;22.20;99.90;;;;;;5029686;28;20216;-72
2023/06/18 08:37:12;;;;;;;16.50;9.77;;;22.30;99.90;;;;;;5027897;28;20510;-72
2023/06/18 08:39:38;;;;;;;15.85;10.32;;;22.40;99.90;;;;;;5047512;28;20098;-72
2023/06/18 08:42:05;;;;;;;16.13;9.95;;;22.50;99.90;;;;;;5026399;28;20043;-72
2023/06/18 08:44:33;;;;;;;13.80;8.85;;;22.60;99.90;;;;;;5026677;28;20116;-72
2023/06/18 08:47:03;;;;;;;16.33;8.73;;;22.70;99.90;;;;;;5027971;28;20041;-72
2023/06/18 08:49:29;;;;;;;16.00;9.05;;;22.80;99.90;;;;;;5022749;28;20136;-72
2023/06/18 08:51:57;;;;;;;12.90;8.23;;;22.90;99.90;;;;;;5040883;28;20041;-72
2023/06/18 08:54:29;;;;;;;12.57;7.60;;;22.90;99.90;;;;;;5026605;28;20045;-72
2023/06/18 08:56:58;;;;;;;12.43;6.78;;;23.00;99.90;;;;;;5026310;28;20044;-73
2023/06/18 08:59:26;;;;;;;9.90;6.18;;;23.10;99.90;;;;;;5023080;28;20049;-72
2023/06/18 09:01:53;;;;;;;10.55;7.07;;;23.10;99.90;;;;;;5025551;28;20037;-72
2023/06/18 09:04:19;;;;;;;10.00;5.93;;;23.20;99.90;;;;;;5035852;28;20094;-72
2023/06/18 09:06:45;;;;;;;;;;;23.30;99.90;;;;;;5022500;28;20041;-72
2023/06/18 09:09:11;;;;;;;8.73;5.90;;;23.30;99.90;;;;;;5009482;28;20081;-72
2023/06/18 09:11:39;;;;;;;;;;;23.40;99.90;;;;;;5043580;28;20487;-72
2023/06/18 09:14:05;;;;;;;10.77;6.40;;;23.50;99.90;;;;;;5022519;28;20409;-72
2023/06/18 09:16:31;;;;;;;8.63;6.22;;;23.50;99.90;;;;;;5010907;28;20041;-72
2023/06/18 09:18:57;;;;;;;;;;;23.60;99.90;;;;;;5025771;28;20063;-72
2023/06/18 09:21:38;;;;;;;11.05;6.60;;;23.60;99.90;;;;;;5025638;28;19924;-72
2023/06/18 09:24:09;;;;;;;7.55;5.60;;;23.70;99.90;;;;;;5020126;28;20545;-72
2023/06/18 09:26:36;;;;;;;8.55;5.90;;;23.70;99.90;;;;;;5023231;28;20041;-72
2023/06/18 09:29:05;;;;;;;9.52;6.28;;;23.80;99.90;;;;;;5023384;28;20048;-72
2023/06/18 09:31:31;;;;;;;9.70;6.15;;;23.90;99.90;;;;;;5039389;28;20048;-72
2023/06/18 09:33:57;;;;;;;9.02;6.35;;;23.90;99.90;;;;;;5027202;28;20049;-72
2023/06/18 09:36:25;;;;;;;8.50;6.03;;;23.90;99.90;;;;;;5029047;28;20052;-72
2023/06/18 09:38:53;;;;;;;8.60;6.03;;;24.00;99.90;;;;;;5027380;28;20037;-72
2023/06/18 09:41:22;;;;;;;9.43;5.85;;;24.00;99.90;;;;;;5028885;28;20080;-72
2023/06/18 09:43:50;;;;;;;8.88;6.15;;;24.10;99.90;;;;;;5041415;28;20120;-72
2023/06/18 09:46:18;;;;;;;9.10;6.40;;;24.10;99.90;;;;;;5023977;28;20091;-72
2023/06/18 09:48:45;;;;;;;9.55;5.68;;;24.20;99.90;;;;;;5021620;28;20038;-72
2023/06/18 09:51:13;;;;;;;8.60;5.93;;;24.30;99.90;;;;;;5023200;28;20048;-72
2023/06/18 09:53:42;;;;;;;11.05;5.82;;;24.40;99.90;;;;;;5044958;28;20041;-72
2023/06/18 09:56:11;;;;;;;9.02;6.15;;;24.50;99.90;;;;;;5027303;28;20047;-72
2023/06/18 09:58:46;;;;;;;8.23;5.32;;;24.50;99.90;;;;;;5028648;28;20580;-70
2023/06/18 10:01:12;;;;;;;9.70;5.20;;;24.60;99.90;;;;;;5030020;28;20052;-70
2023/06/18 10:03:38;;;;;;;7.60;5.30;;;24.70;99.90;;;;;;5029939;28;20033;-70
2023/06/18 10:06:24;;;;;;;8.98;5.45;;;24.80;99.90;;;;;;5030168;28;20416;-70
2023/06/18 10:08:56;;;;;;;8.63;5.25;;;24.80;99.90;;;;;;5030488;28;20052;-70
2023/06/18 10:11:25;;;;;;;6.72;4.72;;;24.90;99.90;;;;;;5022121;28;20067;-70
2023/06/18 10:13:56;;;;;;;8.48;5.35;;;25.00;99.90;;;;;;5043765;28;20053;-70
2023/06/18 10:16:24;;;;;;;9.68;5.03;;;25.00;99.90;;;;;;5036625;28;20091;-69
2023/06/18 10:19:03;;;;;;;7.25;4.65;;;25.10;99.90;;;;;;5027110;28;20037;-70
2023/06/18 10:21:31;;;;;;;6.68;5.00;;;25.20;99.90;;;;;;5021578;28;20083;-70
2023/06/18 10:24:04;;;;;;;9.02;5.68;;;25.20;99.90;;;;;;5044313;28;20452;-70
2023/06/18 10:26:30;;;;;;;8.70;5.00;;;25.30;99.90;;;;;;5023491;28;20041;-70
2023/06/18 10:28:56;;;;;;;8.25;4.68;;;25.40;99.90;;;;;;5028315;28;20044;-70
2023/06/18 10:31:23;;;;;;;7.05;4.70;;;25.40;99.90;;;;;;5045428;28;20049;-70
2023/06/18 10:33:50;;;;;;;7.38;4.80;;;25.50;99.90;;;;;;5026737;28;20032;-70
2023/06/18 10:36:16;;;;;;;8.52;6.35;;;25.50;99.90;;;;;;5044408;28;20471;-70
2023/06/18 10:38:43;;;;;;;6.55;4.70;;;25.50;99.90;;;;;;5043145;28;20045;-70
2023/06/18 10:41:10;;;;;;;10.07;5.60;;;25.60;99.90;;;;;;5045876;28;20041;-70
2023/06/18 10:43:40;;;;;;;8.15;5.45;;;25.70;99.90;;;;;;5021058;28;20388;-70
2023/06/18 10:46:14;;;;;;;10.10;5.18;;;25.70;99.90;;;;;;5029838;28;20041;-70
2023/06/18 10:48:40;;;;;;;7.85;5.18;;;25.80;99.90;;;;;;5046532;28;20522;-70
2023/06/18 10:51:13;;;;;;;7.18;5.00;;;25.90;99.90;;;;;;5023969;28;20049;-70
2023/06/18 10:53:39;;;;;;;8.00;5.55;;;25.90;99.90;;;;;;5042255;28;20144;-70
2023/06/18 10:56:05;;;;;;;8.15;5.03;;;25.90;99.90;;;;;;5045069;28;20040;-70
2023/06/18 10:58:37;;;;;;;7.68;4.93;;;25.90;99.90;;;;;;5028464;28;20041;-70
2023/06/18 11:01:03;;;;;;;7.47;5.10;;;25.90;99.90;;;;;;5042778;28;20092;-70
2023/06/18 11:03:37;;;;;;;8.45;5.22;;;25.90;99.90;;;;;;5045709;28;20045;-70
2023/06/18 11:06:07;;;;;;;8.60;4.82;;;26.00;99.90;;;;;;5025955;28;20162;-70
2023/06/18 11:08:34;;;;;;;7.57;5.22;;;26.00;99.90;;;;;;5025382;28;20049;-70
2023/06/18 11:11:04;;;;;;;8.57;4.78;;;26.10;99.90;;;;;;5026190;28;20041;-70
2023/06/18 11:13:35;;;;;;;7.53;5.07;;;26.10;99.90;;;;;;5044367;28;20044;-70
2023/06/18 11:16:07;;;;;;;8.90;4.97;;;26.10;99.90;;;;;;5022130;28;20069;-70
2023/06/18 11:18:34;;;;;;;7.80;5.15;;;26.20;99.40;;;;;;5017336;28;20574;-70
2023/06/18 11:21:04;;;;;;;7.15;4.65;;;26.20;99.20;;;;;;5022915;28;20037;-70
2023/06/18 11:23:31;;;;;;;7.20;4.63;;;26.30;99.30;;;;;;5038966;28;20204;-70
2023/06/18 11:25:58;;;;;;;6.80;4.82;;;26.40;99.30;;;;;;5041459;28;20055;-70
2023/06/18 11:28:24;;;;;;;8.50;5.10;;;26.50;98.90;;;;;;5024939;28;20577;-70
2023/06/18 11:30:58;;;;;;;7.78;4.85;;;26.50;98.80;;;;;;5046539;28;20364;-70
2023/06/18 11:33:28;;;;;;;6.32;4.32;;;26.50;98.70;;;;;;5024862;28;20037;-70
2023/06/18 11:36:05;;;;;;;7.38;4.95;;;26.60;98.70;;;;;;5026758;28;20429;-70
2023/06/18 11:38:31;;;;;;;6.70;4.60;;;26.60;98.00;;;;;;5024647;28;20475;-70
2023/06/18 11:40:57;;;;;;;7.70;5.07;;;26.70;97.90;;;;;;5046250;28;20552;-70
2023/06/18 11:43:23;;;;;;;6.57;4.55;;;26.80;97.20;;;;;;5022998;28;20033;-70
2023/06/18 11:45:50;;;;;;;6.30;4.63;;;26.80;96.90;;;;;;5037729;28;20033;-67
2023/06/18 11:48:16;;;;;;;6.55;4.88;;;26.90;97.20;;;;;;5044114;28;20075;-67
2023/06/18 11:50:43;;;;;;;7.80;5.20;;;26.90;96.90;;;;;;5042736;28;20110;-68
2023/06/18 11:53:11;;;;;;;9.68;4.78;;;27.00;97.40;;;;;;5040745;28;20304;-68
2023/06/18 11:55:38;;;;;;;8.93;5.03;;;27.10;96.90;;;;;;5040168;28;20701;-67
2023/06/18 11:58:05;;;;;;;8.38;5.13;;;27.10;97.10;;;;;;5041554;28;20049;-66
2023/06/18 12:00:31;;;;;;;8.05;4.65;;;27.20;97.20;;;;;;5041310;28;20037;-66
2023/06/18 12:03:00;;;;;;;5.20;4.43;;;27.30;96.10;;;;;;5040861;28;20072;-68
2023/06/18 12:05:36;;;;;;;6.35;4.55;;;27.40;95.80;;;;;;5022905;28;20037;-69
2023/06/18 12:08:12;;;;;;;7.85;4.90;;;27.40;94.80;;;;;;5041246;28;20072;-68
2023/06/18 12:10:40;;;;;;;7.10;4.88;;;27.50;94.30;;;;;;5025393;28;20052;-68
2023/06/18 12:13:26;;;;;;;6.50;4.65;;;27.60;94.50;;;;;;5034030;28;20087;-69
2023/06/18 12:15:58;;;;;;;;;;;27.60;94.20;;;;;;5020287;28;20048;-69
2023/06/18 12:18:28;;;;;;;7.57;4.65;;;27.70;93.60;;;;;;5031469;28;19924;-70
2023/06/18 12:20:55;;;;;;;8.50;4.57;;;27.80;93.60;;;;;;5041625;28;20048;-69
2023/06/18 12:23:24;;;;;;;6.10;4.25;;;27.80;92.70;;;;;;5010784;28;20045;-68
2023/06/18 12:25:53;;;;;;;8.57;4.65;;;27.90;92.50;;;;;;5023387;28;20131;-68
2023/06/18 12:28:30;;;;;;;5.78;4.50;;;28.00;92.60;;;;;;5024706;28;20045;-68
2023/06/18 12:30:56;;;;;;;7.00;5.13;;;28.10;92.70;;;;;;5038996;28;20072;-68
2023/06/18 12:33:22;;;;;;;7.25;5.00;;;28.10;92.00;;;;;;5024490;28;20580;-69
2023/06/18 12:35:51;;;;;;;7.53;4.20;;;28.10;90.80;;;;;;5022500;28;20443;-68